Time;durP1;ratioP1;P1;durP2;ratioP2;P2;SDS_P1;SDS_P2;PMS_P1;PMS_P2;Temp;Humidity;BMP_temperature;BMP_pressure;BME280_temperature;BME280_humidity;BME280_pressure;Samples;Min_cycle;Max_cycle;Signal;HPM_P1;HPM_P2
2023/08/16 04:01:19;;;;;;;11.10;8.10;;;20.60;99.90;;;;;;5502423;23;20080;-65
2023/08/16 04:03:46;;;;;;;8.45;7.53;;;20.60;99.90;;;;;;4967545;28;20527;-65
2023/08/16 04:06:12;;;;;;;9.05;7.18;;;20.60;99.90;;;;;;4974580;28;20053;-66
2023/08/16 04:08:41;;;;;;;15.55;9.52;;;20.60;99.90;;;;;;4974797;28;20468;-64
2023/08/16 04:11:06;;;;;;;11.75;8.05;;;20.60;99.90;;;;;;4974669;28;20031;-65
2023/08/16 04:13:33;;;;;;;11.00;9.05;;;20.50;99.90;;;;;;4974647;28;20030;-65
2023/08/16 04:15:59;;;;;;;11.85;9.30;;;20.40;99.90;;;;;;4975213;28;20113;-66
2023/08/16 04:18:25;;;;;;;;;;;20.40;99.90;;;;;;4975182;28;20085;-66
2023/08/16 04:20:50;;;;;;;10.20;8.70;;;20.40;99.90;;;;;;4974843;28;19914;-66
2023/08/16 04:23:16;;;;;;;14.35;8.35;;;20.30;99.90;;;;;;4957560;28;20022;-67
2023/08/16 04:25:41;;;;;;;10.23;8.32;;;20.30;99.90;;;;;;4974656;28;20058;-66
2023/08/16 04:28:07;;;;;;;10.00;8.57;;;20.30;99.90;;;;;;4974691;28;20058;-66
2023/08/16 04:30:34;;;;;;;9.68;7.50;;;20.30;99.90;;;;;;4974753;28;20030;-66
2023/08/16 04:32:59;;;;;;;;;;;20.40;99.90;;;;;;4975098;28;20023;-66
2023/08/16 04:35:25;;;;;;;8.73;7.78;;;20.40;99.90;;;;;;4975027;28;20286;-66
2023/08/16 04:37:50;;;;;;;10.32;7.57;;;20.40;99.90;;;;;;4974398;28;20031;-66
2023/08/16 04:40:16;;;;;;;10.93;7.63;;;20.50;99.90;;;;;;4974666;28;20505;-66
2023/08/16 04:42:41;;;;;;;8.18;7.03;;;20.50;99.90;;;;;;4974588;28;20037;-67
2023/08/16 04:45:07;;;;;;;7.70;6.20;;;20.50;99.90;;;;;;4974222;28;20066;-66
2023/08/16 04:47:33;;;;;;;8.75;5.93;;;20.40;99.90;;;;;;4957987;28;20027;-67
2023/08/16 04:49:58;;;;;;;8.68;6.50;;;20.50;99.90;;;;;;4977955;28;20031;-66
2023/08/16 04:52:24;;;;;;;9.80;6.38;;;20.70;99.90;;;;;;4960481;28;20037;-67
2023/08/16 04:54:50;;;;;;;9.15;5.82;;;20.70;99.90;;;;;;4977815;28;20039;-67
2023/08/16 04:57:15;;;;;;;11.73;6.80;;;20.70;99.90;;;;;;4977376;28;20034;-67
2023/08/16 04:59:41;;;;;;;8.85;6.38;;;20.70;99.90;;;;;;4977597;28;20109;-67
2023/08/16 05:02:07;;;;;;;10.02;6.30;;;20.70;99.90;;;;;;4977195;28;20539;-67
2023/08/16 05:04:32;;;;;;;10.82;6.68;;;20.60;99.90;;;;;;4977598;28;20035;-67
2023/08/16 05:06:58;;;;;;;7.40;6.15;;;20.60;99.90;;;;;;4977472;28;20030;-68
2023/08/16 05:09:23;;;;;;;6.78;6.10;;;20.60;99.90;;;;;;4977666;28;20026;-67
2023/08/16 05:11:51;;;;;;;7.10;6.20;;;20.60;99.90;;;;;;4977789;28;20027;-69
2023/08/16 05:14:17;;;;;;;7.72;6.25;;;20.60;99.90;;;;;;4977626;28;20031;-67
2023/08/16 05:16:42;;;;;;;8.73;6.20;;;20.60;99.90;;;;;;4977748;28;20085;-66
2023/08/16 05:19:08;;;;;;;11.52;6.85;;;20.70;99.90;;;;;;4977801;28;20027;-66
2023/08/16 05:21:33;;;;;;;8.23;6.55;;;20.70;99.90;;;;;;4977604;28;20395;-67
2023/08/16 05:23:59;;;;;;;6.32;5.63;;;20.80;99.90;;;;;;4978004;28;20046;-66
2023/08/16 05:26:25;;;;;;;7.50;5.68;;;20.90;99.90;;;;;;4977652;28;20420;-66
2023/08/16 05:28:50;;;;;;;6.93;5.72;;;20.80;99.90;;;;;;4977445;28;20035;-66
2023/08/16 05:31:16;;;;;;;7.00;5.95;;;20.90;99.90;;;;;;4977269;28;20035;-66
2023/08/16 05:33:42;;;;;;;6.68;5.47;;;20.90;99.90;;;;;;4977389;28;20391;-66
2023/08/16 05:36:08;;;;;;;9.52;6.90;;;20.90;99.90;;;;;;4977467;28;20033;-68
2023/08/16 05:38:33;;;;;;;7.18;5.68;;;20.90;99.90;;;;;;4977420;28;20023;-66
2023/08/16 05:41:00;;;;;;;7.97;6.03;;;20.80;99.90;;;;;;4977156;28;20027;-67
2023/08/16 05:43:25;;;;;;;7.80;5.45;;;20.90;99.90;;;;;;4977032;28;20098;-68
2023/08/16 05:45:51;;;;;;;7.90;5.78;;;20.90;99.90;;;;;;4977353;28;20022;-67
2023/08/16 05:48:17;;;;;;;9.23;6.20;;;20.90;99.90;;;;;;4977391;28;20081;-67
2023/08/16 05:50:42;;;;;;;12.18;7.03;;;20.90;99.90;;;;;;4977618;28;20089;-66
2023/08/16 05:53:08;;;;;;;9.35;6.68;;;20.90;99.90;;;;;;4960072;28;20034;-67
2023/08/16 05:55:34;;;;;;;8.48;6.72;;;20.90;99.90;;;;;;4960988;28;20033;-67
2023/08/16 05:58:00;;;;;;;10.75;7.45;;;21.00;99.90;;;;;;4978978;28;20030;-66
2023/08/16 06:00:26;;;;;;;9.60;7.35;;;20.90;99.90;;;;;;4960898;28;20031;-67
2023/08/16 06:02:52;;;;;;;8.40;7.43;;;20.90;99.90;;;;;;4978883;28;20400;-67
2023/08/16 06:05:18;;;;;;;;;;;20.90;99.90;;;;;;4979190;28;20440;-66
2023/08/16 06:07:44;;;;;;;9.45;7.43;;;20.80;99.90;;;;;;4960217;28;19906;-66
2023/08/16 06:10:10;;;;;;;9.02;7.32;;;20.90;99.90;;;;;;4977120;28;20057;-67
2023/08/16 06:12:35;;;;;;;9.18;7.82;;;21.00;99.90;;;;;;4976597;28;20106;-67
2023/08/16 06:15:01;;;;;;;11.23;8.43;;;21.10;99.90;;;;;;4976736;28;20510;-66
2023/08/16 06:17:26;;;;;;;9.20;7.97;;;21.20;99.90;;;;;;4976419;28;20030;-66
2023/08/16 06:19:52;;;;;;;10.52;7.57;;;21.30;99.90;;;;;;4976548;28;20045;-66
2023/08/16 06:22:17;;;;;;;11.40;7.22;;;21.30;99.90;;;;;;4959668;28;20031;-66
2023/08/16 06:24:43;;;;;;;9.75;7.32;;;21.30;99.90;;;;;;4977490;28;20034;-66
2023/08/16 06:27:09;;;;;;;9.60;6.50;;;21.20;99.90;;;;;;4977027;28;20019;-66
2023/08/16 06:29:37;;;;;;;9.88;7.28;;;21.20;99.90;;;;;;4977276;28;20078;-68
2023/08/16 06:32:03;;;;;;;7.63;6.30;;;21.30;99.90;;;;;;4976913;28;20467;-66
2023/08/16 06:34:29;;;;;;;7.05;6.32;;;21.40;99.90;;;;;;4977445;28;20073;-68
2023/08/16 06:36:55;;;;;;;8.65;5.90;;;21.40;99.90;;;;;;4959715;28;20031;-65
2023/08/16 06:39:21;;;;;;;11.88;6.03;;;21.40;99.90;;;;;;4978547;28;20054;-69
2023/08/16 06:41:48;;;;;;;8.52;6.28;;;21.40;99.90;;;;;;4978214;28;20035;-69
2023/08/16 06:44:13;;;;;;;8.35;6.20;;;21.40;99.90;;;;;;4959403;28;20050;-68
2023/08/16 06:46:39;;;;;;;6.40;5.45;;;21.50;99.90;;;;;;4976176;28;20443;-67
2023/08/16 06:49:05;;;;;;;9.23;5.60;;;21.60;99.90;;;;;;4976470;28;20054;-68
2023/08/16 06:51:30;;;;;;;6.88;4.82;;;21.60;99.90;;;;;;4975762;28;20427;-70
2023/08/16 06:53:56;;;;;;;6.13;4.78;;;21.70;99.90;;;;;;4976126;28;20101;-69
2023/08/16 06:56:21;;;;;;;7.38;5.30;;;21.80;99.90;;;;;;4975912;28;20042;-68
2023/08/16 06:58:47;;;;;;;9.48;5.50;;;21.90;99.90;;;;;;4975599;28;20031;-69
2023/08/16 07:01:12;;;;;;;7.93;5.00;;;22.00;99.90;;;;;;4975431;28;20035;-69
2023/08/16 07:03:38;;;;;;;6.72;4.78;;;22.10;99.90;;;;;;4958209;28;20026;-69
2023/08/16 07:06:04;;;;;;;9.57;4.70;;;22.10;99.90;;;;;;4976158;28;20042;-68
2023/08/16 07:08:29;;;;;;;;;;;22.20;99.90;;;;;;4959056;28;20022;-68
2023/08/16 07:10:55;;;;;;;7.40;4.88;;;22.20;99.90;;;;;;4975524;28;19966;-69
2023/08/16 07:13:20;;;;;;;5.32;4.63;;;22.30;99.90;;;;;;4958283;28;20559;-69
2023/08/16 07:15:46;;;;;;;7.50;4.18;;;22.40;99.90;;;;;;4958965;28;20078;-69
2023/08/16 07:18:12;;;;;;;;;;;22.50;99.90;;;;;;4959309;28;20033;-68
2023/08/16 07:20:38;;;;;;;6.72;4.80;;;22.70;99.90;;;;;;4977393;28;19910;-69
2023/08/16 07:23:05;;;;;;;5.95;4.15;;;22.90;99.90;;;;;;4977183;28;20077;-69
2023/08/16 07:25:30;;;;;;;7.35;4.20;;;22.90;99.90;;;;;;4976758;28;20046;-69
2023/08/16 07:27:56;;;;;;;4.55;4.03;;;22.90;99.90;;;;;;4977153;28;20098;-69
2023/08/16 07:30:22;;;;;;;5.15;4.25;;;23.00;99.90;;;;;;4976629;28;20062;-69
2023/08/16 07:32:47;;;;;;;;;;;23.10;99.90;;;;;;4977473;28;20109;-69
2023/08/16 07:35:12;;;;;;;6.60;3.83;;;23.10;99.90;;;;;;4977038;28;19906;-69
2023/08/16 07:37:38;;;;;;;;;;;23.10;99.90;;;;;;4976458;28;20487;-68
2023/08/16 07:40:05;;;;;;;5.60;3.97;;;23.20;99.90;;;;;;4975493;28;20319;-68
2023/08/16 07:42:30;;;;;;;8.38;3.70;;;23.30;99.90;;;;;;4975311;28;20023;-68
2023/08/16 07:44:58;;;;;;;;;;;23.40;99.90;;;;;;4958374;28;20026;-69
2023/08/16 07:47:24;;;;;;;5.80;3.80;;;23.40;99.90;;;;;;4975248;28;20362;-69
2023/08/16 07:49:49;;;;;;;;;;;23.40;99.90;;;;;;4958634;28;20027;-68
2023/08/16 07:52:15;;;;;;;7.10;4.30;;;23.40;99.90;;;;;;4975254;28;19906;-68
2023/08/16 07:54:40;;;;;;;;;;;23.50;99.90;;;;;;4958497;28;20023;-68
2023/08/16 07:57:06;;;;;;;6.70;3.92;;;23.50;99.90;;;;;;4957815;28;20016;-68
2023/08/16 07:59:32;;;;;;;;;;;23.50;99.90;;;;;;4975571;28;20031;-69
2023/08/16 08:01:57;;;;;;;7.95;4.10;;;23.60;99.90;;;;;;4957713;28;19964;-67
2023/08/16 08:04:23;;;;;;;;;;;23.70;99.90;;;;;;4976055;28;20383;-69
2023/08/16 08:06:49;;;;;;;5.45;3.70;;;23.70;99.90;;;;;;4977253;28;19906;-69
2023/08/16 08:09:14;;;;;;;;;;;23.80;99.90;;;;;;4978411;28;20549;-69
2023/08/16 08:11:40;;;;;;;4.53;3.83;;;23.90;99.90;;;;;;4975130;28;19906;-69
2023/08/16 08:14:05;;;;;;;;;;;24.00;99.90;;;;;;4958622;28;20122;-69
2023/08/16 08:16:31;;;;;;;5.82;4.03;;;24.10;99.90;;;;;;4979562;28;19992;-68
2023/08/16 08:18:57;;;;;;;6.43;4.25;;;24.20;99.90;;;;;;4961312;28;20396;-68
2023/08/16 08:21:22;;;;;;;;;;;24.30;99.90;;;;;;4981902;28;20491;-68
2023/08/16 08:23:48;;;;;;;6.90;3.80;;;24.40;99.90;;;;;;4965496;28;19906;-70
2023/08/16 08:26:14;;;;;;;7.15;3.50;;;25.30;99.90;;;;;;4971146;28;20066;-68
2023/08/16 08:28:40;;;;;;;6.95;3.88;;;26.60;99.90;;;;;;4972053;28;20023;-69
2023/08/16 08:31:05;;;;;;;6.05;3.70;;;27.80;99.90;;;;;;4988024;28;20111;-69
2023/08/16 08:33:31;;;;;;;7.38;3.53;;;28.90;99.90;;;;;;4965198;28;20110;-68
2023/08/16 08:35:57;;;;;;;4.25;3.30;;;29.90;99.90;;;;;;4980965;28;20026;-69
2023/08/16 08:38:23;;;;;;;3.67;3.03;;;31.40;99.90;;;;;;4979167;28;20037;-69
2023/08/16 08:40:59;;;;;;;3.50;2.97;;;32.80;99.90;;;;;;4978922;28;20391;-69
2023/08/16 08:43:33;;;;;;;4.05;2.88;;;34.40;99.60;;;;;;4978330;28;20122;-68
2023/08/16 08:45:59;;;;;;;4.43;2.80;;;35.50;97.70;;;;;;4978688;28;20491;-70
2023/08/16 08:48:26;;;;;;;3.78;2.60;;;36.40;96.00;;;;;;4978238;28;20570;-69
2023/08/16 08:50:53;;;;;;;4.40;2.83;;;37.20;94.50;;;;;;4978002;28;20041;-69
2023/08/16 08:53:20;;;;;;;4.63;2.80;;;37.70;92.80;;;;;;4978370;28;20026;-68
2023/08/16 08:55:47;;;;;;;4.35;3.03;;;37.50;92.50;;;;;;4977784;28;20078;-68
2023/08/16 08:58:14;;;;;;;3.13;2.70;;;36.80;92.20;;;;;;4977904;28;20118;-68
2023/08/16 09:00:41;;;;;;;5.05;2.63;;;36.10;93.10;;;;;;4977666;28;20035;-68
2023/08/16 09:03:08;;;;;;;4.93;2.58;;;36.30;93.10;;;;;;4960238;28;20033;-68
2023/08/16 09:05:37;;;;;;;3.80;2.58;;;36.70;92.20;;;;;;4978366;28;20078;-69
2023/08/16 09:08:03;;;;;;;3.30;2.65;;;36.80;92.10;;;;;;4978369;28;20030;-69
2023/08/16 09:10:35;;;;;;;4.50;2.30;;;36.80;92.00;;;;;;4978614;28;20034;-69
2023/08/16 09:13:04;;;;;;;5.53;2.50;;;37.00;91.70;;;;;;4978054;28;20034;-69
2023/08/16 09:15:29;;;;;;;5.22;2.70;;;36.50;92.20;;;;;;4978984;28;20023;-68
2023/08/16 09:18:12;;;;;;;4.50;3.17;;;36.20;91.90;;;;;;4977528;28;20033;-69
2023/08/16 09:20:39;;;;;;;3.80;2.70;;;34.40;93.50;;;;;;4977863;28;20023;-68
2023/08/16 09:23:05;;;;;;;4.88;2.70;;;32.90;95.20;;;;;;4977430;28;20038;-69
2023/08/16 09:25:31;;;;;;;3.55;2.80;;;32.30;95.90;;;;;;4977480;28;20413;-68
2023/08/16 09:27:56;;;;;;;5.78;2.92;;;33.20;95.40;;;;;;4960119;28;20480;-69
2023/08/16 09:30:26;;;;;;;3.60;2.85;;;33.10;95.40;;;;;;4977312;28;20026;-69
2023/08/16 09:32:55;;;;;;;5.25;2.83;;;32.90;95.50;;;;;;4977266;28;20451;-69
2023/08/16 09:35:30;;;;;;;4.57;2.83;;;32.60;96.00;;;;;;4977387;28;20026;-68
2023/08/16 09:37:57;;;;;;;5.05;2.60;;;31.60;96.90;;;;;;4977450;28;20419;-70
2023/08/16 09:40:23;;;;;;;4.00;3.30;;;30.80;98.00;;;;;;4959975;28;20565;-69
2023/08/16 09:42:49;;;;;;;5.72;2.83;;;30.10;98.30;;;;;;4959819;28;20034;-68
2023/08/16 09:45:14;;;;;;;4.47;3.00;;;30.20;98.80;;;;;;4977383;28;20019;-68
2023/08/16 09:47:43;;;;;;;5.45;3.30;;;30.10;99.40;;;;;;4977560;28;20038;-70
2023/08/16 09:50:09;;;;;;;3.90;2.75;;;29.90;99.80;;;;;;4977543;28;20052;-69
2023/08/16 09:52:36;;;;;;;5.35;2.83;;;30.00;99.70;;;;;;4959826;28;20487;-69
2023/08/16 09:55:03;;;;;;;3.53;3.15;;;30.00;99.90;;;;;;4976911;28;20037;-68
2023/08/16 09:57:29;;;;;;;4.63;3.28;;;30.30;99.90;;;;;;4977143;28;20031;-68
2023/08/16 09:59:55;;;;;;;4.78;3.10;;;30.60;99.60;;;;;;4977108;28;20543;-68
2023/08/16 10:02:21;;;;;;;5.43;2.80;;;30.70;99.50;;;;;;4976499;28;20117;-69
2023/08/16 10:04:48;;;;;;;4.75;2.83;;;32.20;98.20;;;;;;4976826;28;20090;-69
2023/08/16 10:07:15;;;;;;;6.10;3.10;;;33.30;96.70;;;;;;4960013;28;20018;-69
2023/08/16 10:09:44;;;;;;;6.47;3.08;;;33.80;96.00;;;;;;4976971;28;20118;-70
2023/08/16 10:12:10;;;;;;;4.43;3.00;;;34.70;95.00;;;;;;4976818;28;20023;-69
2023/08/16 10:14:38;;;;;;;5.18;3.50;;;35.80;94.30;;;;;;4976730;28;20045;-69
2023/08/16 10:17:06;;;;;;;4.95;3.00;;;37.40;92.70;;;;;;4977024;28;20089;-68
2023/08/16 10:19:37;;;;;;;5.03;2.92;;;38.50;91.20;;;;;;4976349;28;20025;-69
2023/08/16 10:22:08;;;;;;;3.92;3.08;;;38.80;90.60;;;;;;4976545;28;20035;-68
2023/08/16 10:24:35;;;;;;;5.38;2.60;;;38.70;90.20;;;;;;4976845;28;20093;-68
2023/08/16 10:27:03;;;;;;;3.58;2.80;;;38.60;90.10;;;;;;4976356;28;20023;-69
2023/08/16 10:29:40;;;;;;;5.88;2.97;;;38.90;90.00;;;;;;4976246;28;20158;-68
2023/08/16 10:32:11;;;;;;;5.63;3.00;;;39.60;88.30;;;;;;4958839;28;20026;-68
2023/08/16 10:34:38;;;;;;;5.88;3.03;;;39.80;86.80;;;;;;4976332;28;20026;-68
2023/08/16 10:37:05;;;;;;;7.28;3.47;;;40.00;86.20;;;;;;4976864;28;20050;-68
2023/08/16 10:39:30;;;;;;;5.25;3.25;;;39.50;86.90;;;;;;4976671;28;20121;-68
2023/08/16 10:42:06;;;;;;;5.80;3.17;;;40.10;86.10;;;;;;4976248;28;20428;-68
2023/08/16 10:44:32;;;;;;;7.03;3.10;;;39.80;85.20;;;;;;4976285;28;20101;-68
2023/08/16 10:46:58;;;;;;;3.92;3.30;;;39.30;85.50;;;;;;4976883;28;20061;-68
2023/08/16 10:49:34;;;;;;;4.53;2.90;;;38.60;86.70;;;;;;4981969;28;20022;-71
2023/08/16 10:52:01;;;;;;;5.78;3.45;;;39.10;86.90;;;;;;4959501;28;20019;-69
2023/08/16 10:54:34;;;;;;;7.55;3.33;;;39.50;86.10;;;;;;4958581;28;20023;-69
2023/08/16 10:57:07;;;;;;;5.07;3.10;;;39.00;84.70;;;;;;4958759;28;20019;-69
2023/08/16 10:59:41;;;;;;;4.97;3.13;;;38.40;85.90;;;;;;4976296;28;20123;-68
2023/08/16 11:02:18;;;;;;;3.88;3.33;;;39.00;86.70;;;;;;4975957;28;20027;-69
2023/08/16 11:04:45;;;;;;;3.65;3.03;;;38.10;86.20;;;;;;4976191;28;20023;-68
2023/08/16 11:07:12;;;;;;;6.97;3.28;;;38.60;86.20;;;;;;4975904;28;20026;-69
2023/08/16 11:09:38;;;;;;;3.92;3.53;;;39.00;85.50;;;;;;4975767;28;20023;-68
2023/08/16 11:12:06;;;;;;;4.22;2.88;;;39.30;84.30;;;;;;4975654;28;20019;-68
2023/08/16 11:14:33;;;;;;;5.45;3.65;;;38.30;84.20;;;;;;4975511;28;20029;-71
2023/08/16 11:16:59;;;;;;;4.53;3.28;;;36.90;86.60;;;;;;4958242;28;20030;-68
2023/08/16 11:19:25;;;;;;;5.82;3.60;;;35.20;89.90;;;;;;4958028;28;20019;-70
2023/08/16 11:21:51;;;;;;;5.95;4.03;;;34.00;91.30;;;;;;4975792;28;20038;-68
2023/08/16 11:24:17;;;;;;;4.68;3.50;;;33.40;92.20;;;;;;4975542;28;20105;-68
2023/08/16 11:26:43;;;;;;;5.22;3.83;;;32.80;92.80;;;;;;4975142;28;20062;-69
2023/08/16 11:29:08;;;;;;;5.60;3.90;;;32.00;93.70;;;;;;4975314;28;20034;-69
2023/08/16 11:31:35;;;;;;;7.40;4.78;;;31.60;94.70;;;;;;4957995;28;20027;-68
2023/08/16 11:34:00;;;;;;;8.32;4.00;;;31.30;94.90;;;;;;4974871;28;20105;-69
2023/08/16 11:36:26;;;;;;;7.65;4.43;;;31.00;95.50;;;;;;4957999;28;20113;-69
2023/08/16 11:38:51;;;;;;;8.23;4.32;;;30.70;96.00;;;;;;4975369;28;20484;-68
2023/08/16 11:41:18;;;;;;;7.10;4.18;;;30.40;96.40;;;;;;4975092;28;20489;-68
2023/08/16 11:43:43;;;;;;;5.72;4.00;;;30.30;96.80;;;;;;4974967;28;20023;-69
2023/08/16 11:46:10;;;;;;;5.93;4.50;;;30.10;97.20;;;;;;4975451;28;20023;-68
2023/08/16 11:48:36;;;;;;;6.38;4.22;;;30.10;97.40;;;;;;4974740;28;20073;-68
2023/08/16 11:51:02;;;;;;;7.35;3.97;;;30.00;97.40;;;;;;4975134;28;20030;-68
2023/08/16 11:53:33;;;;;;;6.65;4.40;;;29.90;97.80;;;;;;4975066;28;20041;-67
2023/08/16 11:56:09;;;;;;;6.97;4.10;;;30.00;98.10;;;;;;4974937;28;20031;-68
2023/08/16 11:58:44;;;;;;;4.75;4.07;;;30.10;98.00;;;;;;4974388;28;20380;-69
2023/08/16 12:01:11;;;;;;;6.10;4.40;;;30.10;98.10;;;;;;4974557;28;20034;-68
2023/08/16 12:03:37;;;;;;;8.02;4.00;;;30.10;97.70;;;;;;4974372;28;20098;-68
2023/08/16 12:06:08;;;;;;;7.47;4.65;;;30.10;97.80;;;;;;4974660;28;20062;-68
2023/08/16 12:08:35;;;;;;;6.85;4.35;;;30.10;97.90;;;;;;4975173;28;20031;-70
2023/08/16 12:11:02;;;;;;;6.45;4.00;;;30.10;98.20;;;;;;4975148;28;20031;-68
2023/08/16 12:13:28;;;;;;;5.60;4.20;;;30.10;98.10;;;;;;4975240;28;20034;-69
2023/08/16 12:15:54;;;;;;;8.43;4.60;;;30.10;97.90;;;;;;4975228;28;20388;-70
2023/08/16 12:18:21;;;;;;;9.82;3.97;;;30.10;97.70;;;;;;4974844;28;20019;-69
2023/08/16 12:20:50;;;;;;;8.40;4.20;;;30.10;97.80;;;;;;4974898;28;20023;-69
2023/08/16 12:23:17;;;;;;;6.32;3.83;;;30.20;97.80;;;;;;4975662;28;20086;-69
2023/08/16 12:25:43;;;;;;;5.72;3.88;;;30.20;97.80;;;;;;4976288;28;20078;-68
2023/08/16 12:28:08;;;;;;;5.57;3.88;;;30.20;97.90;;;;;;4975780;28;20030;-69
2023/08/16 12:30:34;;;;;;;5.82;3.72;;;30.20;97.50;;;;;;4974634;28;20089;-68
2023/08/16 12:32:59;;;;;;;7.20;4.10;;;30.20;97.40;;;;;;4974032;28;20451;-68
2023/08/16 12:35:25;;;;;;;6.63;3.78;;;30.20;97.60;;;;;;4974392;28;20105;-67
2023/08/16 12:37:51;;;;;;;6.57;3.92;;;30.10;98.20;;;;;;4974444;28;20048;-68
2023/08/16 12:40:16;;;;;;;6.18;3.50;;;30.10;97.90;;;;;;4956828;28;20035;-68
2023/08/16 12:42:42;;;;;;;5.72;3.60;;;30.20;97.60;;;;;;4974421;28;20034;-68
2023/08/16 12:45:09;;;;;;;7.47;3.85;;;30.20;97.70;;;;;;4974458;28;20019;-68
2023/08/16 12:47:34;;;;;;;6.28;4.18;;;30.20;98.00;;;;;;4974430;28;20026;-69
2023/08/16 12:50:00;;;;;;;6.68;4.20;;;30.30;97.90;;;;;;4974305;28;20031;-68
2023/08/16 12:52:26;;;;;;;7.20;4.13;;;30.30;97.90;;;;;;4974438;28;20067;-69
2023/08/16 12:54:52;;;;;;;6.20;3.95;;;30.40;97.80;;;;;;4974309;28;20110;-69
2023/08/16 12:57:18;;;;;;;6.65;4.10;;;30.40;97.50;;;;;;4974241;28;20030;-68
2023/08/16 12:59:46;;;;;;;6.05;3.97;;;30.50;96.60;;;;;;4974127;28;20023;-68
2023/08/16 13:02:15;;;;;;;4.93;3.60;;;30.50;97.20;;;;;;4973891;28;20082;-68
2023/08/16 13:04:42;;;;;;;6.00;3.60;;;30.60;97.40;;;;;;4973842;28;20102;-68
2023/08/16 13:07:07;;;;;;;4.13;3.13;;;30.60;97.50;;;;;;4974640;28;20086;-69
2023/08/16 13:09:33;;;;;;;5.60;3.80;;;30.70;97.30;;;;;;4976655;28;20113;-68
2023/08/16 13:11:58;;;;;;;5.45;3.80;;;30.70;96.70;;;;;;4977648;28;20400;-68
2023/08/16 13:14:24;;;;;;;6.57;4.10;;;30.80;97.10;;;;;;4977779;28;20027;-68
2023/08/16 13:16:50;;;;;;;5.45;3.85;;;30.80;97.00;;;;;;4977803;28;20105;-68
2023/08/16 13:19:15;;;;;;;4.55;4.00;;;30.80;97.20;;;;;;4977715;28;20463;-68
2023/08/16 13:21:41;;;;;;;7.38;4.30;;;30.90;97.30;;;;;;4978133;28;20035;-69
2023/08/16 13:24:12;;;;;;;7.78;4.05;;;30.90;97.50;;;;;;4978019;28;20123;-68
2023/08/16 13:26:38;;;;;;;6.68;4.50;;;30.90;97.20;;;;;;4978427;28;20086;-69
2023/08/16 13:29:06;;;;;;;6.00;4.15;;;30.90;97.20;;;;;;4978208;28;20473;-69
2023/08/16 13:31:32;;;;;;;5.35;3.85;;;30.90;97.10;;;;;;4977386;28;20472;-68
2023/08/16 13:33:58;;;;;;;4.28;3.80;;;30.80;97.00;;;;;;4977046;28;20074;-69
2023/08/16 13:36:24;;;;;;;8.38;3.90;;;30.80;97.20;;;;;;4977142;28;20027;-69
2023/08/16 13:38:49;;;;;;;4.38;3.97;;;30.80;97.10;;;;;;4976982;28;20038;-70
2023/08/16 13:41:15;;;;;;;6.28;3.50;;;30.80;97.00;;;;;;4959508;28;20023;-69
2023/08/16 13:43:40;;;;;;;6.03;4.05;;;30.90;96.90;;;;;;4976843;28;20026;-68
2023/08/16 13:46:06;;;;;;;7.45;4.30;;;31.00;97.00;;;;;;4959789;28;20035;-68
2023/08/16 13:48:31;;;;;;;6.18;3.60;;;31.10;96.50;;;;;;4976677;28;20078;-69
2023/08/16 13:50:57;;;;;;;6.53;4.00;;;31.10;96.60;;;;;;4976963;28;20039;-68
2023/08/16 13:53:22;;;;;;;28.77;11.25;;;31.30;96.70;;;;;;4976867;28;20081;-68
2023/08/16 13:55:48;;;;;;;4.60;3.97;;;31.10;96.60;;;;;;4976893;28;20031;-69
2023/08/16 13:58:13;;;;;;;6.78;4.43;;;31.10;96.70;;;;;;4959471;28;20031;-69
2023/08/16 14:00:39;;;;;;;5.95;3.95;;;31.20;96.50;;;;;;4975333;28;20044;-69
2023/08/16 14:03:05;;;;;;;8.18;4.32;;;31.30;96.50;;;;;;4976752;28;20047;-69
2023/08/16 14:05:31;;;;;;;11.98;6.05;;;31.30;96.00;;;;;;4976840;28;20094;-68
2023/08/16 14:07:56;;;;;;;6.00;4.47;;;31.30;96.30;;;;;;4976537;28;20082;-68
2023/08/16 14:10:22;;;;;;;7.88;5.55;;;31.40;96.20;;;;;;4976352;28;20031;-70
2023/08/16 14:12:48;;;;;;;6.30;3.90;;;31.50;96.20;;;;;;4959306;28;20093;-68
2023/08/16 14:15:13;;;;;;;5.28;4.72;;;31.70;96.10;;;;;;4976358;28;20396;-70
2023/08/16 14:17:39;;;;;;;7.95;4.57;;;31.70;95.80;;;;;;4976720;28;20484;-68
2023/08/16 14:20:07;;;;;;;5.00;4.13;;;31.70;95.80;;;;;;4975121;28;20102;-68
2023/08/16 14:22:33;;;;;;;11.52;6.32;;;31.70;95.80;;;;;;4976274;28;20048;-68
2023/08/16 14:24:58;;;;;;;6.10;4.55;;;31.60;95.70;;;;;;4976375;28;20057;-69
2023/08/16 14:27:24;;;;;;;5.43;4.57;;;31.60;95.90;;;;;;4959075;28;20431;-68
2023/08/16 14:29:49;;;;;;;6.25;3.58;;;31.60;95.80;;;;;;4976621;28;20447;-69
2023/08/16 14:32:15;;;;;;;4.80;3.78;;;31.80;95.90;;;;;;4976188;28;20117;-69
2023/08/16 14:34:41;;;;;;;4.75;3.90;;;31.90;95.60;;;;;;4956821;29;20023;-69
2023/08/16 14:37:07;;;;;;;6.43;4.25;;;32.00;95.70;;;;;;4956785;29;20038;-70
2023/08/16 14:39:33;;;;;;;7.90;3.53;;;32.00;95.50;;;;;;4956913;29;20031;-68
2023/08/16 14:41:58;;;;;;;5.95;3.70;;;31.90;95.60;;;;;;4955390;28;20027;-68
2023/08/16 14:44:24;;;;;;;4.70;3.53;;;31.90;95.50;;;;;;4956427;29;20024;-68
2023/08/16 14:46:50;;;;;;;7.85;4.15;;;32.10;95.30;;;;;;4956771;29;20027;-69
2023/08/16 14:49:19;;;;;;;7.78;3.40;;;32.20;95.10;;;;;;4956298;29;20016;-69
2023/08/16 14:51:44;;;;;;;7.88;3.58;;;32.10;95.40;;;;;;4939310;29;20090;-69
2023/08/16 14:54:10;;;;;;;8.65;3.75;;;32.20;95.20;;;;;;4939518;29;20059;-70
2023/08/16 14:56:35;;;;;;;6.70;3.63;;;32.30;95.30;;;;;;4957210;29;20023;-68
2023/08/16 14:59:01;;;;;;;5.93;3.42;;;32.40;95.00;;;;;;4956241;29;20027;-68
2023/08/16 15:01:26;;;;;;;6.35;2.85;;;32.40;95.20;;;;;;4954767;28;20110;-69
2023/08/16 15:03:52;;;;;;;5.47;2.42;;;32.10;91.60;;;;;;4969511;28;20030;-68
2023/08/16 15:06:18;;;;;;;5.82;2.45;;;31.10;89.50;;;;;;4976052;28;20023;-66
2023/08/16 15:08:43;;;;;;;4.57;1.92;;;30.60;90.20;;;;;;4976007;28;20029;-66
2023/08/16 15:11:14;;;;;;;5.22;2.50;;;30.20;90.10;;;;;;4975685;28;20078;-65
2023/08/16 15:13:40;;;;;;;3.40;1.85;;;30.00;90.90;;;;;;4958017;28;20491;-66
2023/08/16 15:16:05;;;;;;;4.00;2.10;;;30.00;90.70;;;;;;4975454;28;20023;-66
2023/08/16 15:18:31;;;;;;;5.95;1.90;;;30.40;89.80;;;;;;4975417;28;20069;-65
2023/08/16 15:20:56;;;;;;;6.97;2.35;;;30.80;87.80;;;;;;4975108;28;20055;-66
2023/08/16 15:23:23;;;;;;;2.85;2.00;;;30.90;87.70;;;;;;4975610;28;20108;-66
2023/08/16 15:25:49;;;;;;;6.40;2.00;;;30.70;87.10;;;;;;4976158;28;20023;-67
2023/08/16 15:28:14;;;;;;;3.25;2.03;;;30.30;88.30;;;;;;4976328;28;20026;-66
2023/08/16 15:30:40;;;;;;;4.97;1.90;;;30.10;89.50;;;;;;4957841;28;20027;-66
2023/08/16 15:33:05;;;;;;;3.40;1.80;;;29.90;90.20;;;;;;4975364;28;20023;-65
2023/08/16 15:35:31;;;;;;;4.43;2.65;;;29.70;90.60;;;;;;4975141;28;20027;-67
2023/08/16 15:37:57;;;;;;;4.63;2.42;;;29.40;91.00;;;;;;4975503;28;20035;-66
2023/08/16 15:40:22;;;;;;;4.53;2.78;;;29.20;91.40;;;;;;4975192;28;20122;-67
2023/08/16 15:42:48;;;;;;;4.07;2.30;;;29.10;91.70;;;;;;4975599;28;20097;-67
2023/08/16 15:45:13;;;;;;;5.22;2.28;;;29.10;92.10;;;;;;4975830;28;20023;-66
2023/08/16 15:47:39;;;;;;;4.60;2.40;;;29.10;92.60;;;;;;4975486;28;20403;-66
2023/08/16 15:50:05;;;;;;;5.55;2.90;;;29.00;92.60;;;;;;4974798;28;20029;-66
2023/08/16 15:52:31;;;;;;;4.40;2.50;;;29.00;92.30;;;;;;4975996;28;20030;-67
2023/08/16 15:54:56;;;;;;;3.53;2.33;;;29.00;92.20;;;;;;4975424;28;20026;-67
2023/08/16 15:57:22;;;;;;;5.00;2.35;;;29.00;92.40;;;;;;4974994;28;20357;-66
2023/08/16 15:59:47;;;;;;;4.30;2.28;;;29.10;92.50;;;;;;4974620;28;20033;-66
2023/08/16 16:02:13;;;;;;;5.00;2.10;;;29.20;92.40;;;;;;4975378;28;20046;-66
2023/08/16 16:04:39;;;;;;;4.95;2.20;;;29.20;92.50;;;;;;4957558;28;20027;-66
2023/08/16 16:07:05;;;;;;;4.40;2.40;;;29.10;92.70;;;;;;4975704;28;20439;-67
2023/08/16 16:09:30;;;;;;;4.80;2.58;;;29.00;93.20;;;;;;4979111;28;20476;-68
2023/08/16 16:11:56;;;;;;;6.63;2.35;;;28.90;93.50;;;;;;4979167;28;20090;-69
2023/08/16 16:14:21;;;;;;;3.20;2.20;;;28.90;93.70;;;;;;4979513;28;20058;-67
2023/08/16 16:16:47;;;;;;;3.05;2.17;;;28.80;94.00;;;;;;4978614;28;20106;-68
2023/08/16 16:19:13;;;;;;;3.95;2.20;;;28.60;94.50;;;;;;4976260;28;20035;-68
2023/08/16 16:21:39;;;;;;;2.85;2.45;;;28.50;94.90;;;;;;4977289;28;20034;-70
2023/08/16 16:24:05;;;;;;;6.28;2.45;;;28.30;95.10;;;;;;4975385;28;20019;-68
2023/08/16 16:26:31;;;;;;;5.35;2.45;;;28.30;95.20;;;;;;4974662;28;20499;-68
2023/08/16 16:28:57;;;;;;;4.30;2.63;;;28.30;95.40;;;;;;4974872;28;20058;-69
2023/08/16 16:31:22;;;;;;;3.78;2.60;;;28.30;95.20;;;;;;4974154;28;20019;-67
2023/08/16 16:33:48;;;;;;;4.25;2.75;;;28.20;95.30;;;;;;4974370;28;20031;-66
2023/08/16 16:36:13;;;;;;;5.72;2.88;;;28.10;95.30;;;;;;4957192;28;20114;-68
2023/08/16 16:38:40;;;;;;;4.00;2.88;;;28.10;95.50;;;;;;4974621;28;20038;-67
2023/08/16 16:41:06;;;;;;;6.03;3.08;;;28.00;95.90;;;;;;4974180;28;20037;-67
2023/08/16 16:43:32;;;;;;;4.32;2.90;;;28.10;95.90;;;;;;4975516;28;20105;-68
2023/08/16 16:45:59;;;;;;;3.85;2.88;;;28.00;95.80;;;;;;4978078;28;20109;-67